createdAt,value
2022-12-05T00:04:43.348Z,599.00
2022-12-05T00:09:42.561Z,617.00
2022-12-05T00:14:40.787Z,648.00
2022-12-05T00:19:41.055Z,690.00
2022-12-05T00:24:39.221Z,639.00
2022-12-05T00:29:40.418Z,644.00
2022-12-05T00:34:38.601Z,610.00
2022-12-05T00:39:36.843Z,615.00
2022-12-05T00:44:37.115Z,606.00
2022-12-05T00:49:35.327Z,612.00
2022-12-05T00:54:34.561Z,644.00
2022-12-05T00:59:33.793Z,603.00
2022-12-05T01:04:33.006Z,506.00
2022-12-05T01:10:14.239Z,656.00
2022-12-05T01:14:31.368Z,805.00
2022-12-05T01:19:31.600Z,740.00
2022-12-05T01:24:30.809Z,568.00
2022-12-05T01:29:29.023Z,635.00
2022-12-05T01:34:28.349Z,600.00
2022-12-05T01:39:28.770Z,618.00
2022-12-05T01:44:28.093Z,605.00
2022-12-05T01:49:26.157Z,613.00
2022-12-05T01:54:25.184Z,596.00
2022-12-05T01:59:24.399Z,624.00
2022-12-05T02:04:23.647Z,631.00
2022-12-05T02:10:04.852Z,553.00
2022-12-05T02:14:21.010Z,765.00
2022-12-05T02:19:22.206Z,684.00
2022-12-05T02:24:20.392Z,680.00
2022-12-05T02:29:19.584Z,673.00
2022-12-05T02:34:17.782Z,681.00
2022-12-05T02:39:17.967Z,644.00
2022-12-05T02:44:18.192Z,640.00
2022-12-05T02:49:17.368Z,621.00
2022-12-05T02:54:16.577Z,627.00
2022-12-05T02:59:19.903Z,628.00
2022-12-05T03:04:13.064Z,618.00
2022-12-05T03:09:14.260Z,617.00
2022-12-05T03:14:14.468Z,603.00
2022-12-05T03:19:12.649Z,616.00
2022-12-05T03:24:11.815Z,609.00
2022-12-05T03:29:10.014Z,614.00
2022-12-05T03:34:09.194Z,605.00
2022-12-05T03:39:10.365Z,621.00
2022-12-05T03:44:08.578Z,602.00
2022-12-05T03:49:07.847Z,603.00
2022-12-05T03:54:08.111Z,606.00
2022-12-05T03:59:06.401Z,607.00
2022-12-05T04:04:04.690Z,608.00
2022-12-05T04:09:06.007Z,595.00
2022-12-05T04:14:03.303Z,597.00
2022-12-05T04:19:03.593Z,596.00
2022-12-05T04:24:00.892Z,598.00
2022-12-05T04:29:02.225Z,612.00
2022-12-05T04:34:00.541Z,582.00
2022-12-05T04:38:59.868Z,593.00
2022-12-05T04:44:00.185Z,593.00
2022-12-05T04:49:00.467Z,583.00
2022-12-05T04:53:57.760Z,594.00
2022-12-05T04:58:57.051Z,586.00
2022-12-05T05:03:56.442Z,594.00
2022-12-05T05:08:55.518Z,582.00
2022-12-05T05:13:54.822Z,581.00
2022-12-05T05:18:54.129Z,581.00
2022-12-05T05:23:53.432Z,590.00
2022-12-05T05:28:53.762Z,586.00
2022-12-05T05:33:51.945Z,585.00
2022-12-05T05:38:52.206Z,585.00
2022-12-05T05:43:51.498Z,602.00
2022-12-05T05:48:50.817Z,601.00
2022-12-05T05:53:49.119Z,595.00
2022-12-05T05:58:49.436Z,607.00
2022-12-05T06:03:48.920Z,603.00
2022-12-05T06:08:46.898Z,595.00
2022-12-05T06:13:45.264Z,609.00
2022-12-05T06:18:46.381Z,591.00
2022-12-05T06:23:45.699Z,595.00
2022-12-05T06:28:44.996Z,602.00
2022-12-05T06:33:44.292Z,599.00
2022-12-05T06:38:43.603Z,597.00
2022-12-05T06:43:40.912Z,604.00
2022-12-05T06:48:41.239Z,591.00
2022-12-05T06:53:40.542Z,604.00
2022-12-05T06:58:39.832Z,604.00
2022-12-05T07:03:39.149Z,601.00
2022-12-05T07:08:39.456Z,576.00
2022-12-05T07:13:38.841Z,605.00
2022-12-05T07:18:36.958Z,599.00
2022-12-05T07:23:37.318Z,608.00
2022-12-05T07:28:35.654Z,602.00
2022-12-05T07:33:34.739Z,585.00
2022-12-05T07:38:35.081Z,586.00
2022-12-05T07:43:33.383Z,585.00
2022-12-05T07:48:33.691Z,588.00
2022-12-05T07:53:32.074Z,602.00
2022-12-05T07:58:31.212Z,590.00
2022-12-05T08:03:30.338Z,587.00
2022-12-05T08:08:30.606Z,631.00
2022-12-05T08:13:29.879Z,615.00
2022-12-05T08:18:30.156Z,617.00
2022-12-05T08:23:27.465Z,620.00
2022-12-05T08:28:27.754Z,605.00
2022-12-05T08:33:27.035Z,606.00
2022-12-05T08:38:26.293Z,602.00
2022-12-05T08:43:25.585Z,624.00
2022-12-05T08:48:29.001Z,594.00
2022-12-05T08:53:23.032Z,656.00
2022-12-05T08:58:22.392Z,589.00
2022-12-05T09:03:21.521Z,620.00
2022-12-05T09:08:20.700Z,631.00
2022-12-05T09:13:20.054Z,642.00
2022-12-05T09:18:20.211Z,646.00
2022-12-05T09:23:18.762Z,635.00
2022-12-05T09:28:18.632Z,650.00
2022-12-05T09:33:16.934Z,668.00
2022-12-05T09:38:16.260Z,670.00
2022-12-05T09:43:15.549Z,671.00
2022-12-05T09:48:14.840Z,730.00
2022-12-05T09:53:15.145Z,684.00
2022-12-05T09:58:13.447Z,749.00
2022-12-05T10:03:13.734Z,669.00
2022-12-05T10:08:12.091Z,645.00
2022-12-05T10:13:12.257Z,648.00
2022-12-05T10:18:10.565Z,640.00
2022-12-05T10:23:18.775Z,635.00
2022-12-05T10:28:09.084Z,621.00
2022-12-05T10:33:09.796Z,627.00
2022-12-05T10:38:07.618Z,604.00
2022-12-05T10:43:07.987Z,599.00
2022-12-05T10:48:08.108Z,594.00
2022-12-05T10:53:07.426Z,602.00
2022-12-05T10:58:04.734Z,583.00
2022-12-05T11:03:05.050Z,610.00
2022-12-05T11:08:04.390Z,587.00
2022-12-05T11:13:01.675Z,596.00
2022-12-05T11:18:03.051Z,589.00
2022-12-05T11:23:01.189Z,578.00
2022-12-05T11:28:01.700Z,597.00
2022-12-05T11:32:59.665Z,591.00
2022-12-05T11:37:58.766Z,574.00
2022-12-05T11:43:05.234Z,625.00
2022-12-05T11:47:58.353Z,589.00
2022-12-05T11:52:56.635Z,577.00
2022-12-05T11:57:57.956Z,580.00
2022-12-05T12:02:55.280Z,574.00
2022-12-05T12:07:56.660Z,575.00
2022-12-05T12:12:54.734Z,594.00
2022-12-05T12:17:53.031Z,587.00
2022-12-05T12:22:52.349Z,570.00
2022-12-05T12:27:52.672Z,594.00
2022-12-05T12:32:50.992Z,596.00
2022-12-05T12:37:51.323Z,569.00
2022-12-05T12:42:50.649Z,582.00
2022-12-05T12:47:48.968Z,583.00
2022-12-05T12:52:48.280Z,573.00
2022-12-05T12:57:49.645Z,578.00
2022-12-05T13:02:47.747Z,571.00
2022-12-05T13:07:46.154Z,573.00
2022-12-05T13:12:46.321Z,556.00
2022-12-05T13:17:44.599Z,529.00
2022-12-05T13:22:43.880Z,566.00
2022-12-05T13:27:43.159Z,574.00
2022-12-05T13:32:42.443Z,570.00
2022-12-05T13:37:41.720Z,575.00
2022-12-05T13:42:42.994Z,565.00
2022-12-05T13:47:40.282Z,572.00
2022-12-05T13:52:40.574Z,589.00
2022-12-05T13:57:40.865Z,562.00
2022-12-05T14:02:38.252Z,569.00
2022-12-05T14:07:37.400Z,565.00
2022-12-05T14:12:36.562Z,558.00
2022-12-05T14:17:36.691Z,577.00
2022-12-05T14:22:34.843Z,565.00
2022-12-05T14:27:35.145Z,568.00
2022-12-05T14:32:33.419Z,561.00
2022-12-05T14:37:34.772Z,570.00
2022-12-05T14:42:33.852Z,559.00
2022-12-05T14:47:31.131Z,563.00
2022-12-05T14:52:30.440Z,559.00
2022-12-05T14:57:30.740Z,556.00
2022-12-05T15:02:30.050Z,553.00
2022-12-05T15:07:29.343Z,568.00
2022-12-05T15:12:29.649Z,565.00
2022-12-05T15:17:27.929Z,563.00
2022-12-05T15:22:27.228Z,566.00
2022-12-05T15:27:26.501Z,562.00
2022-12-05T15:32:25.802Z,578.00
2022-12-05T15:37:26.103Z,567.00
2022-12-05T15:42:29.306Z,570.00
2022-12-05T15:47:23.581Z,568.00
2022-12-05T15:52:23.909Z,585.00
2022-12-05T15:57:23.232Z,576.00
2022-12-05T16:02:21.557Z,588.00
2022-12-05T16:07:19.656Z,591.00
2022-12-05T16:12:19.994Z,577.00
2022-12-05T16:17:18.300Z,569.00
2022-12-05T16:22:17.496Z,576.00
2022-12-05T16:27:17.725Z,587.00
2022-12-05T16:32:16.041Z,583.00
2022-12-05T16:37:16.190Z,585.00
2022-12-05T16:42:15.499Z,578.00
2022-12-05T16:47:15.018Z,583.00
2022-12-05T16:52:14.973Z,571.00
2022-12-05T16:57:15.362Z,575.00
2022-12-05T17:02:11.967Z,575.00
2022-12-05T17:07:11.651Z,549.00
2022-12-05T17:12:10.982Z,576.00
2022-12-05T17:17:09.427Z,576.00
2022-12-05T17:22:09.527Z,565.00
2022-12-05T17:27:07.899Z,576.00
2022-12-05T17:32:07.140Z,563.00
2022-12-05T17:37:07.900Z,577.00
2022-12-05T17:42:06.559Z,576.00
2022-12-05T17:47:08.265Z,576.00
2022-12-05T17:52:22.415Z,577.00
2022-12-05T17:57:04.315Z,574.00
2022-12-05T18:02:03.267Z,573.00
2022-12-05T18:07:01.580Z,568.00
2022-12-05T18:12:02.203Z,582.00
2022-12-05T18:17:00.270Z,583.00
2022-12-05T18:22:00.437Z,585.00
2022-12-05T18:26:58.589Z,577.00
2022-12-05T18:31:59.690Z,571.00
2022-12-05T18:36:57.193Z,584.00
2022-12-05T18:41:56.493Z,573.00
2022-12-05T18:46:55.780Z,573.00
2022-12-05T18:51:56.002Z,565.00
2022-12-05T18:56:54.277Z,570.00
2022-12-05T19:01:53.532Z,578.00
2022-12-05T19:06:52.785Z,581.00
2022-12-05T19:11:52.078Z,581.00
2022-12-05T19:16:56.459Z,626.00
2022-12-05T19:21:51.565Z,614.00
2022-12-05T19:26:50.859Z,635.00
2022-12-05T19:31:50.228Z,655.00
2022-12-05T19:36:49.354Z,643.00
2022-12-05T19:41:47.636Z,657.00
2022-12-05T19:46:47.996Z,678.00
2022-12-05T19:51:48.175Z,675.00
2022-12-05T19:56:45.339Z,678.00
2022-12-05T20:01:44.209Z,678.00
2022-12-05T20:06:43.372Z,681.00
2022-12-05T20:11:43.968Z,691.00
2022-12-05T20:16:41.815Z,703.00
2022-12-05T20:21:40.961Z,698.00
2022-12-05T20:26:42.445Z,697.00
2022-12-05T20:31:40.976Z,684.00
2022-12-05T20:36:40.051Z,702.00
2022-12-05T20:41:40.308Z,863.00
2022-12-05T20:46:38.302Z,798.00
2022-12-05T20:51:38.440Z,828.00
2022-12-05T20:56:38.945Z,865.00
2022-12-05T21:01:36.096Z,788.00
2022-12-05T21:06:34.524Z,815.00
2022-12-05T21:11:33.775Z,825.00
2022-12-05T21:16:33.102Z,831.00
2022-12-05T21:21:31.920Z,830.00
2022-12-05T21:26:32.387Z,887.00
2022-12-05T21:31:30.796Z,841.00
2022-12-05T21:36:30.656Z,839.00
2022-12-05T21:41:29.955Z,782.00
2022-12-05T21:46:30.326Z,837.00
2022-12-05T21:51:26.453Z,785.00
2022-12-05T21:56:26.748Z,786.00
2022-12-05T22:01:26.073Z,876.00
2022-12-05T22:06:25.274Z,881.00
2022-12-05T22:11:25.444Z,784.00
2022-12-05T22:16:29.008Z,847.00
2022-12-05T22:21:22.825Z,777.00
2022-12-05T22:26:22.995Z,767.00
2022-12-05T22:31:21.195Z,743.00
2022-12-05T22:36:21.377Z,721.00
2022-12-05T22:41:19.542Z,737.00
2022-12-05T22:46:19.804Z,714.00
2022-12-05T22:51:19.032Z,750.00
2022-12-05T22:56:18.216Z,716.00
2022-12-05T23:01:19.371Z,709.00
2022-12-05T23:06:16.551Z,706.00
2022-12-05T23:11:14.714Z,708.00
2022-12-05T23:16:15.034Z,666.00
2022-12-05T23:21:12.049Z,711.00
2022-12-05T23:26:12.239Z,675.00
2022-12-05T23:31:11.451Z,680.00
2022-12-05T23:36:11.628Z,673.00
2022-12-05T23:41:10.832Z,711.00
2022-12-05T23:46:08.978Z,635.00
2022-12-05T23:51:10.153Z,656.00
2022-12-05T23:56:08.317Z,707.00
